Burnsville, Minnesota
Current Conditions -  °F | °C
As of 2:53 PM on Sunday 21 Dec 2014 (Local Time) from KMSP Reporting Station
Light Rain Light Rain  
Wind Chill: 29°   Ceiling: 500
Heat Index: 36°   Visibility: 2mi
Dew Point: 34°   Wind: 9mph
Humidity: 93%   Direction: 150°SSE
Pressure: 29.75"   Gusts: NA
Location:  44.77°N, 93.27°W
Report Text: KMSP 212053Z 15008KT 2SM -RA BR OVC005 02/01 A2975 RMK AO2 SFC VIS 2 1/2 RAE17B38SNB1956E1958 SLP084 P0002 60005 T00220011 56009 $
Loading
Personal Weather Stations






























Interactive Weather Map New forecast layout! Learn more

10-Day Weather Forecast

Advertisements
Track Severe Weather on mobile